Time;durP1;ratioP1;P1;durP2;ratioP2;P2;SDS_P1;SDS_P2;PMS_P1;PMS_P2;Temp;Humidity;BMP_temperature;BMP_pressure;BME280_temperature;BME280_humidity;BME280_pressure;Samples;Min_cycle;Max_cycle;Signal;HPM_P1;HPM_P2
2021/12/03 00:01:09;;;;;;;15.45;9.38;;;;;;;1.01;100.00;96637.38;5093975;28;20023;-76
2021/12/03 00:03:35;;;;;;;13.85;8.10;;;;;;;0.97;100.00;96639.78;5090956;28;20027;-74
2021/12/03 00:06:01;;;;;;;15.50;9.35;;;;;;;0.94;100.00;96637.63;5092304;28;20072;-81
2021/12/03 00:08:27;;;;;;;16.00;9.35;;;;;;;0.86;100.00;96640.03;5092031;28;20040;-78
2021/12/03 00:10:56;;;;;;;13.85;9.00;;;;;;;0.94;100.00;96655.69;5091985;28;20034;-80
2021/12/03 00:13:22;;;;;;;15.95;8.63;;;;;;;0.96;100.00;96664.28;5092056;28;20028;-76
2021/12/03 00:15:49;;;;;;;13.02;7.85;;;;;;;1.05;100.00;96668.06;5091777;28;20035;-74
2021/12/03 00:18:14;;;;;;;12.32;8.13;;;;;;;1.10;100.00;96680.75;5096396;28;20038;-87
2021/12/03 00:20:40;;;;;;;12.98;8.55;;;;;;;1.07;100.00;96676.69;5101351;28;20493;-87
2021/12/03 00:23:06;;;;;;;15.25;9.18;;;;;;;1.11;100.00;96675.06;5098823;28;20031;-86
2021/12/03 00:25:33;;;;;;;12.98;7.95;;;;;;;1.23;100.00;96685.59;5097899;28;20024;-85
2021/12/03 00:27:59;;;;;;;13.30;8.20;;;;;;;1.23;100.00;96680.19;5097172;28;20066;-86
2021/12/03 00:30:24;;;;;;;14.75;8.18;;;;;;;1.32;100.00;96678.59;5096561;28;20034;-81
2021/12/03 00:32:50;;;;;;;29.25;14.20;;;;;;;1.21;100.00;96679.66;5099200;28;20066;-80
2021/12/03 00:35:17;;;;;;;45.67;18.92;;;;;;;1.23;100.00;96677.50;5103254;28;20028;-87
2021/12/03 00:37:44;;;;;;;36.20;17.77;;;;;;;1.18;100.00;96681.03;5098755;28;20025;-86
2021/12/03 00:40:13;;;;;;;47.22;20.63;;;;;;;1.12;100.00;96695.56;5095736;28;20909;-84
2021/12/03 00:42:39;;;;;;;51.90;22.67;;;;;;;1.08;100.00;96708.72;5094243;28;20024;-81
2021/12/03 00:45:07;;;;;;;64.05;27.17;;;;;;;1.17;100.00;96705.50;5093487;28;20063;-81
2021/12/03 00:47:33;;;;;;;66.03;27.27;;;;;;;1.21;100.00;96715.50;5090119;28;20427;-75
2021/12/03 00:49:58;;;;;;;64.40;27.23;;;;;;;1.18;100.00;96704.44;5093324;28;20020;-77
2021/12/03 00:52:24;;;;;;;56.30;24.27;;;;;;;1.16;100.00;96714.69;5094257;28;20058;-75
2021/12/03 00:54:49;;;;;;;42.38;19.45;;;;;;;1.09;100.00;96723.00;5096148;28;20024;-81
2021/12/03 00:57:15;;;;;;;45.17;22.30;;;;;;;1.08;100.00;96719.50;5089438;28;20548;-74
2021/12/03 00:59:41;;;;;;;43.72;19.33;;;;;;;1.13;100.00;96729.44;5072640;28;20088;-75
2021/12/03 01:02:07;;;;;;;37.13;18.73;;;;;;;1.15;100.00;96727.31;5072637;28;20033;-75
2021/12/03 01:04:33;;;;;;;37.63;18.88;;;;;;;1.23;100.00;96724.09;5071947;28;20374;-75
2021/12/03 01:06:58;;;;;;;31.70;16.95;;;;;;;1.18;100.00;96736.75;5071669;28;20541;-75
2021/12/03 01:09:24;;;;;;;32.72;18.33;;;;;;;1.21;100.00;96728.94;5073820;28;20020;-74
2021/12/03 01:11:50;;;;;;;31.77;17.80;;;;;;;1.16;100.00;96737.00;5091159;28;20031;-75
2021/12/03 01:14:16;;;;;;;31.80;18.50;;;;;;;1.12;100.00;96738.63;5091020;28;20111;-75
2021/12/03 01:16:42;;;;;;;37.47;21.20;;;;;;;1.16;100.00;96744.28;5090718;28;20044;-75
2021/12/03 01:19:07;;;;;;;50.60;23.83;;;;;;;1.17;100.00;96746.69;5090779;28;20056;-74
2021/12/03 01:21:33;;;;;;;53.45;24.23;;;;;;;1.22;100.00;96744.03;5091452;28;20021;-75
2021/12/03 01:23:58;;;;;;;70.10;28.42;;;;;;;1.23;100.00;96736.75;5090671;28;20035;-73
2021/12/03 01:26:24;;;;;;;63.28;29.48;;;;;;;1.23;100.00;96742.13;5090729;28;20040;-76
2021/12/03 01:28:50;;;;;;;61.03;26.58;;;;;;;1.27;100.00;96748.63;5090601;28;20024;-73
2021/12/03 01:31:17;;;;;;;63.63;26.25;;;;;;;1.27;100.00;96754.81;5090663;28;20376;-74
2021/12/03 01:33:43;;;;;;;56.95;23.52;;;;;;;1.32;100.00;96757.50;5090739;28;20082;-76
2021/12/03 01:36:09;;;;;;;40.60;19.85;;;;;;;1.20;100.00;96756.13;5090379;28;20024;-76
2021/12/03 01:38:34;;;;;;;38.20;19.70;;;;;;;1.17;100.00;96759.34;5091089;28;20054;-75
2021/12/03 01:41:01;;;;;;;40.55;20.05;;;;;;;1.04;100.00;96761.47;5090542;28;20081;-76
2021/12/03 01:43:27;;;;;;;28.90;17.40;;;;;;;0.99;100.00;96769.53;5090205;28;20032;-77
2021/12/03 01:45:59;;;;;;;28.55;17.30;;;;;;;1.02;100.00;96777.09;5087371;28;20022;-79
2021/12/03 01:48:25;;;;;;;27.88;16.65;;;;;;;0.99;100.00;96772.25;5070530;28;20025;-78
2021/12/03 01:50:51;;;;;;;29.45;16.35;;;;;;;1.02;100.00;96773.59;5070430;28;20509;-75
2021/12/03 01:53:19;;;;;;;27.55;15.57;;;;;;;1.12;100.00;96783.59;5071095;28;20139;-79
2021/12/03 01:55:47;;;;;;;30.40;16.55;;;;;;;1.15;100.00;96788.44;5076980;28;20050;-78
2021/12/03 01:58:14;;;;;;;33.05;15.98;;;;;;;1.25;100.00;96785.78;5072617;28;20075;-75
2021/12/03 02:00:46;;;;;;;28.08;14.57;;;;;;;1.25;100.00;96788.47;5070927;28;20128;-76
2021/12/03 02:03:14;;;;;;;26.38;13.75;;;;;;;1.16;100.00;96788.16;5070442;28;20017;-76
2021/12/03 02:05:40;;;;;;;23.30;12.77;;;;;;;1.15;100.00;96799.22;5070427;28;20424;-76
2021/12/03 02:08:06;;;;;;;24.40;14.98;;;;;;;1.14;100.00;96798.38;5070246;28;20036;-73
2021/12/03 02:10:33;;;;;;;23.98;13.05;;;;;;;1.20;100.00;96797.34;5070129;28;20477;-78
2021/12/03 02:12:58;;;;;;;20.92;13.05;;;;;;;1.22;100.00;96805.97;5070042;28;20156;-78
2021/12/03 02:15:24;;;;;;;29.25;16.80;;;;;;;1.20;100.00;96799.22;5070763;28;20545;-79
2021/12/03 02:17:50;;;;;;;37.05;17.30;;;;;;;1.15;100.00;96815.34;5073585;28;20032;-77
2021/12/03 02:20:16;;;;;;;25.60;14.40;;;;;;;1.14;100.00;96816.41;5073816;28;20466;-75
2021/12/03 02:22:43;;;;;;;25.63;14.68;;;;;;;1.16;100.00;96819.69;5074154;28;20035;-76
2021/12/03 02:25:13;;;;;;;28.00;15.30;;;;;;;1.24;100.00;96835.31;5073406;28;20553;-75
2021/12/03 02:27:38;;;;;;;30.70;16.02;;;;;;;1.33;100.00;96831.84;5073936;28;20484;-77
2021/12/03 02:30:06;;;;;;;28.10;15.77;;;;;;;1.31;100.00;96838.59;5074054;28;20055;-77
2021/12/03 02:32:32;;;;;;;27.83;15.13;;;;;;;1.17;100.00;96832.06;5074118;28;20032;-76
2021/12/03 02:34:57;;;;;;;26.08;15.18;;;;;;;1.13;100.00;96841.75;5073621;28;20032;-78
2021/12/03 02:37:23;;;;;;;30.13;15.63;;;;;;;1.18;100.00;96839.06;5074003;28;20056;-78
2021/12/03 02:39:49;;;;;;;25.55;15.15;;;;;;;1.31;100.00;96843.97;5073439;28;20051;-81
2021/12/03 02:42:15;;;;;;;24.45;15.73;;;;;;;1.23;100.00;96845.28;5073605;28;20101;-80
2021/12/03 02:44:41;;;;;;;29.23;15.90;;;;;;;1.29;100.00;96848.78;5073354;28;20037;-78
2021/12/03 02:47:06;;;;;;;25.55;14.75;;;;;;;1.13;100.00;96850.59;5074329;28;20021;-78
2021/12/03 02:49:41;;;;;;;28.02;16.23;;;;;;;1.06;100.00;96850.88;5077553;28;20030;-78
2021/12/03 02:52:07;;;;;;;29.55;16.58;;;;;;;1.16;100.00;96854.69;5076040;28;20025;-78
2021/12/03 02:54:33;;;;;;;27.05;15.18;;;;;;;1.24;100.00;96875.72;5073406;28;20029;-78
2021/12/03 02:56:58;;;;;;;26.92;15.85;;;;;;;1.23;100.00;96879.47;5073122;28;20023;-76
2021/12/03 02:59:23;;;;;;;25.35;15.52;;;;;;;1.26;100.00;96885.13;5108337;28;20059;-78
2021/12/03 03:01:49;;;;;;;33.72;16.67;;;;;;;1.34;100.00;96894.63;5113181;28;20415;-73
2021/12/03 03:04:14;;;;;;;34.28;17.30;;;;;;;1.35;100.00;96899.72;5113527;28;20823;-80
2021/12/03 03:06:40;;;;;;;32.17;16.15;;;;;;;1.34;100.00;96905.38;5113336;28;20031;-76
2021/12/03 03:09:09;;;;;;;34.38;17.98;;;;;;;1.42;100.00;96910.25;5113600;28;20023;-77
2021/12/03 03:11:35;;;;;;;34.85;17.80;;;;;;;1.43;100.00;96911.88;5113471;28;20498;-76
2021/12/03 03:14:01;;;;;;;34.28;18.08;;;;;;;1.43;100.00;96911.88;5113502;28;20098;-79
2021/12/03 03:16:27;;;;;;;35.47;18.05;;;;;;;1.43;100.00;96917.28;5113393;28;20107;-75
2021/12/03 03:18:52;;;;;;;31.75;17.55;;;;;;;1.36;100.00;96911.31;5113342;28;20040;-78
2021/12/03 03:21:18;;;;;;;33.88;17.08;;;;;;;1.42;100.00;96926.41;5113683;28;20484;-76
2021/12/03 03:23:44;;;;;;;26.98;16.38;;;;;;;1.39;100.00;96926.94;5113458;28;20472;-78
2021/12/03 03:26:09;;;;;;;27.73;15.13;;;;;;;1.44;100.00;96927.00;5112497;28;20031;-76
2021/12/03 03:28:36;;;;;;;26.20;15.32;;;;;;;1.38;100.00;96926.13;5113614;28;20039;-82
2021/12/03 03:31:02;;;;;;;31.92;16.88;;;;;;;1.40;100.00;96924.00;5113816;28;20112;-74
2021/12/03 03:33:28;;;;;;;27.40;16.38;;;;;;;1.39;100.00;96935.84;5113339;28;20035;-79
2021/12/03 03:35:54;;;;;;;31.23;17.00;;;;;;;1.40;100.00;96940.16;5113083;28;20020;-83
2021/12/03 03:38:19;;;;;;;32.35;17.95;;;;;;;1.38;100.00;96946.91;5113696;28;20108;-77
2021/12/03 03:40:46;;;;;;;32.05;19.10;;;;;;;1.37;100.00;96950.66;5113667;28;20033;-78
2021/12/03 03:43:11;;;;;;;38.15;20.15;;;;;;;1.28;100.00;96953.03;5113190;28;20110;-78
2021/12/03 03:45:39;;;;;;;36.20;18.20;;;;;;;1.33;100.00;96949.53;5113779;28;20597;-80
2021/12/03 03:48:05;;;;;;;30.40;17.35;;;;;;;1.32;100.00;96945.22;5117224;28;20027;-82
2021/12/03 03:50:31;;;;;;;31.05;17.48;;;;;;;1.29;100.00;96951.13;5118750;28;20169;-83
2021/12/03 03:52:57;;;;;;;29.20;16.52;;;;;;;1.29;100.00;96951.13;5114133;28;20515;-80
2021/12/03 03:55:24;;;;;;;31.20;17.73;;;;;;;1.35;100.00;96958.16;5112856;28;20059;-77
2021/12/03 03:57:52;;;;;;;31.33;19.02;;;;;;;1.37;100.00;96962.25;5112945;28;20039;-79
2021/12/03 04:00:25;;;;;;;31.35;17.30;;;;;;;1.45;100.00;96958.22;5113156;28;20065;-76
2021/12/03 04:02:51;;;;;;;29.17;17.10;;;;;;;1.36;100.00;96957.91;5112869;28;20027;-81
2021/12/03 04:05:16;;;;;;;34.30;19.65;;;;;;;1.40;100.00;96971.69;5112658;28;20114;-78
2021/12/03 04:07:42;;;;;;;33.75;19.02;;;;;;;1.35;100.00;96967.06;5113127;28;20460;-77
2021/12/03 04:10:09;;;;;;;42.92;22.30;;;;;;;1.32;100.00;96970.28;5113046;28;20027;-82
2021/12/03 04:12:35;;;;;;;36.47;20.70;;;;;;;1.34;100.00;96978.09;5112368;28;20022;-78
2021/12/03 04:15:01;;;;;;;36.08;19.90;;;;;;;1.32;100.00;96977.53;5112428;28;20079;-77
2021/12/03 04:17:27;;;;;;;36.72;21.23;;;;;;;1.28;100.00;96982.66;5112471;28;20483;-77
2021/12/03 04:19:52;;;;;;;37.00;20.25;;;;;;;1.32;100.00;96983.75;5112405;28;20099;-76
2021/12/03 04:22:23;;;;;;;39.35;22.02;;;;;;;1.43;100.00;96988.13;5112302;28;20034;-77
2021/12/03 04:24:49;;;;;;;36.15;21.88;;;;;;;1.39;100.00;96991.59;5112658;28;20119;-78
2021/12/03 04:27:14;;;;;;;41.05;19.90;;;;;;;1.40;100.00;97001.31;5112143;28;20135;-81
2021/12/03 04:29:39;;;;;;;37.22;20.15;;;;;;;1.42;100.00;97005.34;5112240;28;20196;-78
2021/12/03 04:32:07;;;;;;;37.65;20.70;;;;;;;1.50;100.00;97014.84;5111985;28;20081;-78
2021/12/03 04:34:33;;;;;;;41.70;21.30;;;;;;;1.31;100.00;97019.03;5112534;28;20395;-76
2021/12/03 04:36:58;;;;;;;48.15;24.00;;;;;;;1.27;100.00;97018.72;5112585;28;20024;-75
2021/12/03 04:39:24;;;;;;;42.75;21.83;;;;;;;1.29;100.00;97018.47;5111189;28;20027;-75
2021/12/03 04:41:49;;;;;;;45.05;21.67;;;;;;;1.25;100.00;97025.44;5112703;28;20038;-77
2021/12/03 04:44:15;;;;;;;46.38;22.83;;;;;;;1.28;100.00;97023.06;5112026;28;20536;-76
2021/12/03 04:46:40;;;;;;;42.25;22.02;;;;;;;1.36;100.00;97029.81;5112205;28;20051;-76
2021/12/03 04:49:05;;;;;;;49.00;23.08;;;;;;;1.17;100.00;97032.13;5111866;28;20201;-74
2021/12/03 04:51:31;;;;;;;48.45;23.40;;;;;;;1.13;100.00;97031.00;5111928;28;20026;-74
2021/12/03 04:53:56;;;;;;;43.15;22.30;;;;;;;1.24;100.00;97032.72;5111928;28;20540;-75
2021/12/03 04:56:22;;;;;;;49.08;22.23;;;;;;;1.32;100.00;97044.88;5111859;28;20028;-74
2021/12/03 04:58:47;;;;;;;44.50;22.48;;;;;;;1.33;100.00;97041.94;5112582;28;20053;-76
2021/12/03 05:01:13;;;;;;;42.00;23.92;;;;;;;1.42;100.00;97047.63;5113299;28;20104;-76
2021/12/03 05:03:38;;;;;;;40.60;21.55;;;;;;;1.33;100.00;97057.28;5117521;28;20046;-75
2021/12/03 05:06:08;;;;;;;41.22;20.05;;;;;;;1.32;100.00;97061.84;5116243;28;20098;-77
2021/12/03 05:08:33;;;;;;;43.38;22.13;;;;;;;1.32;100.00;97071.81;5114448;28;20016;-78
2021/12/03 05:10:59;;;;;;;45.17;22.70;;;;;;;1.32;100.00;97077.19;5113493;28;20039;-76
2021/12/03 05:13:29;;;;;;;48.83;25.05;;;;;;;1.32;100.00;97071.81;5113211;28;20453;-75
2021/12/03 05:15:55;;;;;;;59.35;24.35;;;;;;;1.33;100.00;97074.25;5111645;28;20027;-75
2021/12/03 05:18:25;;;;;;;50.13;25.25;;;;;;;1.29;100.00;97093.88;5112149;28;20023;-77
2021/12/03 05:20:52;;;;;;;60.55;27.52;;;;;;;1.19;100.00;97101.88;5111930;28;20020;-76
2021/12/03 05:23:19;;;;;;;56.72;25.05;;;;;;;1.22;100.00;97101.38;5110749;28;20389;-74
2021/12/03 05:25:46;;;;;;;63.25;25.73;;;;;;;1.18;100.00;97102.94;5111670;28;20392;-74
2021/12/03 05:28:11;;;;;;;61.17;25.88;;;;;;;1.16;100.00;97097.00;5111329;28;20523;-74
2021/12/03 05:30:37;;;;;;;54.75;26.13;;;;;;;1.10;100.00;97098.81;5111267;28;20034;-74
2021/12/03 05:33:04;;;;;;;57.10;25.42;;;;;;;1.12;100.00;97102.09;5111402;28;20092;-74
2021/12/03 05:35:30;;;;;;;63.60;27.20;;;;;;;1.14;100.00;97112.59;5111364;28;20089;-74
2021/12/03 05:37:55;;;;;;;61.17;26.73;;;;;;;1.15;100.00;97108.84;5111774;28;20027;-74
2021/12/03 05:40:21;;;;;;;57.40;25.58;;;;;;;1.25;100.00;97114.31;5111765;28;20365;-77
2021/12/03 05:42:47;;;;;;;62.03;26.23;;;;;;;1.18;100.00;97116.41;5116675;28;20062;-74
2021/12/03 05:45:19;;;;;;;45.63;22.58;;;;;;;1.17;100.00;97118.28;5111229;28;20059;-74
2021/12/03 05:47:45;;;;;;;39.30;21.45;;;;;;;1.17;100.00;97130.94;5109663;28;20095;-75
2021/12/03 05:50:13;;;;;;;37.53;21.00;;;;;;;1.06;100.00;97119.28;5113509;28;20019;-75
2021/12/03 05:52:39;;;;;;;43.50;21.42;;;;;;;1.01;100.00;97119.22;5115064;28;20027;-77
2021/12/03 05:55:06;;;;;;;39.92;21.23;;;;;;;1.01;100.00;97125.41;5115222;28;20023;-77
2021/12/03 05:57:32;;;;;;;42.58;20.58;;;;;;;0.96;100.00;97144.22;5114152;28;20047;-75
2021/12/03 05:59:57;;;;;;;40.35;21.35;;;;;;;0.96;100.00;97143.41;5094852;28;20040;-75
2021/12/03 06:02:23;;;;;;;39.90;20.98;;;;;;;0.95;100.00;97147.97;5094687;28;20077;-74
2021/12/03 06:04:48;;;;;;;41.55;23.67;;;;;;;0.93;100.00;97151.97;5094634;28;20477;-74
2021/12/03 06:07:14;;;;;;;40.83;22.55;;;;;;;0.98;100.00;97162.78;5094964;28;20051;-74
2021/12/03 06:09:41;;;;;;;40.00;21.60;;;;;;;1.02;100.00;97153.97;5094364;28;20020;-76
2021/12/03 06:12:07;;;;;;;36.28;18.73;;;;;;;1.15;100.00;97157.31;5095704;28;20054;-78
2021/12/03 06:14:33;;;;;;;32.45;19.40;;;;;;;1.22;100.00;97174.09;5100856;28;20032;-75
2021/12/03 06:16:58;;;;;;;32.58;18.95;;;;;;;1.28;100.00;97165.78;5103355;28;20026;-76
2021/12/03 06:19:24;;;;;;;27.55;17.67;;;;;;;1.40;100.00;97179.91;5102885;28;20459;-77
2021/12/03 06:21:49;;;;;;;37.95;19.73;;;;;;;1.33;100.00;97187.38;5091733;28;20036;-77
2021/12/03 06:24:15;;;;;;;36.20;19.13;;;;;;;1.32;100.00;97193.81;5097730;28;20032;-75
2021/12/03 06:26:40;;;;;;;34.65;19.73;;;;;;;1.31;100.00;97204.88;5083010;28;20024;-75
2021/12/03 06:29:05;;;;;;;31.83;19.60;;;;;;;1.39;100.00;97204.41;5074395;28;20094;-76
2021/12/03 06:31:31;;;;;;;34.58;18.85;;;;;;;1.47;100.00;97217.41;5074211;28;20026;-74
2021/12/03 06:33:56;;;;;;;32.30;18.45;;;;;;;1.47;100.00;97226.28;5073848;28;20107;-76
2021/12/03 06:36:22;;;;;;;34.63;18.38;;;;;;;1.56;100.00;97234.75;5073591;28;20033;-76
2021/12/03 06:38:48;;;;;;;35.83;18.15;;;;;;;1.48;100.00;97244.09;5076724;28;20063;-74
2021/12/03 06:41:13;;;;;;;42.63;20.85;;;;;;;1.55;100.00;97249.28;5074955;28;20078;-74
2021/12/03 06:43:39;;;;;;;51.35;24.48;;;;;;;1.51;100.00;97258.94;5078226;28;20606;-75
2021/12/03 06:46:04;;;;;;;46.22;23.08;;;;;;;1.51;100.00;97251.66;5073424;28;20028;-73
2021/12/03 06:48:30;;;;;;;51.58;25.58;;;;;;;1.47;100.00;97263.22;5091723;28;20488;-76
2021/12/03 06:50:55;;;;;;;59.25;27.35;;;;;;;1.44;100.00;97269.91;5093565;28;20030;-76
2021/12/03 06:53:24;;;;;;;54.42;24.67;;;;;;;1.33;100.00;97270.06;5091928;28;20042;-75
2021/12/03 06:56:03;;;;;;;60.40;26.65;;;;;;;1.39;100.00;97267.16;5095915;28;20038;-74
2021/12/03 06:58:29;;;;;;;59.10;26.05;;;;;;;1.37;100.00;97263.94;5113993;28;20101;-74
2021/12/03 07:00:55;;;;;;;64.60;29.85;;;;;;;1.45;100.00;97281.50;5111506;28;20036;-75
2021/12/03 07:03:20;;;;;;;63.40;28.83;;;;;;;1.40;100.00;97279.56;5112738;27;20661;-73
2021/12/03 07:05:46;;;;;;;62.97;27.90;;;;;;;1.47;100.00;97287.47;5112993;28;20430;-74
2021/12/03 07:08:12;;;;;;;57.15;26.40;;;;;;;1.59;100.00;97296.22;5112390;28;20027;-75
2021/12/03 07:10:37;;;;;;;54.97;25.77;;;;;;;1.66;100.00;97302.19;5096944;28;20488;-75
2021/12/03 07:13:03;;;;;;;57.42;25.52;;;;;;;1.74;100.00;97307.13;5090894;28;20149;-76
2021/12/03 07:15:29;;;;;;;56.35;23.35;;;;;;;1.78;100.00;97312.81;5094207;28;20024;-76
2021/12/03 07:17:54;;;;;;;53.50;25.95;;;;;;;1.89;100.00;97319.94;5095723;28;20031;-74
2021/12/03 07:20:22;;;;;;;52.00;23.25;;;;;;;1.91;100.00;97331.28;5093046;28;20043;-74
2021/12/03 07:22:48;;;;;;;56.83;25.02;;;;;;;1.88;100.00;97334.50;5091761;28;20388;-75
2021/12/03 07:25:15;;;;;;;52.70;24.42;;;;;;;1.88;100.00;97347.97;5090963;28;20047;-75
2021/12/03 07:27:41;;;;;;;53.97;24.17;;;;;;;1.91;100.00;97345.56;5091916;28;20459;-75
2021/12/03 07:30:09;;;;;;;60.58;24.95;;;;;;;2.00;100.00;97359.41;5104887;28;20108;-74
2021/12/03 07:32:35;;;;;;;62.85;24.15;;;;;;;1.87;100.00;97360.63;5100071;28;20929;-77
2021/12/03 07:35:01;;;;;;;65.93;26.83;;;;;;;1.89;100.00;97374.66;5103905;28;20468;-76
2021/12/03 07:37:26;;;;;;;58.55;26.65;;;;;;;1.78;100.00;97372.94;5112284;28;20381;-75
2021/12/03 07:39:52;;;;;;;61.10;25.90;;;;;;;1.89;100.00;97380.06;5092756;28;20028;-76
2021/12/03 07:42:18;;;;;;;58.20;26.40;;;;;;;1.99;100.00;97388.25;5095233;28;20025;-76
2021/12/03 07:44:43;;;;;;;57.85;26.95;;;;;;;2.05;100.00;97389.13;5097078;28;20034;-75
2021/12/03 07:47:09;;;;;;;60.55;25.90;;;;;;;1.99;100.00;97393.66;5098871;28;20063;-75
2021/12/03 07:49:35;;;;;;;60.95;26.27;;;;;;;1.97;100.00;97403.06;5100389;28;20028;-75
2021/12/03 07:52:01;;;;;;;63.88;27.83;;;;;;;1.97;100.00;97401.16;5098206;28;20027;-75
2021/12/03 07:54:26;;;;;;;65.93;26.75;;;;;;;2.01;100.00;97412.25;5097928;28;20081;-76
2021/12/03 07:56:52;;;;;;;52.83;24.75;;;;;;;2.00;100.00;97403.38;5097571;28;20077;-75
2021/12/03 07:59:18;;;;;;;57.72;26.40;;;;;;;2.01;100.00;97418.47;5098810;28;20039;-76
2021/12/03 08:01:45;;;;;;;52.95;25.42;;;;;;;2.09;100.00;97418.03;5112636;28;20039;-79
2021/12/03 08:04:11;;;;;;;58.67;24.88;;;;;;;2.17;100.00;97414.88;5114191;28;20442;-75
2021/12/03 08:06:39;;;;;;;58.33;26.48;;;;;;;2.24;100.00;97430.03;5112644;28;20040;-75
2021/12/03 08:09:06;;;;;;;56.58;25.70;;;;;;;2.13;100.00;97429.91;5111437;28;20453;-76
2021/12/03 08:11:31;;;;;;;63.53;27.88;;;;;;;2.08;100.00;97429.88;5111687;28;20055;-75
2021/12/03 08:13:57;;;;;;;63.58;26.13;;;;;;;2.09;100.00;97445.00;5110733;28;20024;-75
2021/12/03 08:16:22;;;;;;;62.33;26.60;;;;;;;2.17;100.00;97444.53;5112553;28;20028;-75
2021/12/03 08:18:48;;;;;;;62.55;27.15;;;;;;;2.33;100.00;97455.47;5111232;28;20361;-76
2021/12/03 08:21:13;;;;;;;61.63;26.00;;;;;;;2.36;100.00;97454.97;5111899;28;20027;-76
2021/12/03 08:23:39;;;;;;;59.78;24.95;;;;;;;2.48;100.00;97458.31;5111692;28;20117;-76
2021/12/03 08:26:04;;;;;;;63.75;28.90;;;;;;;2.42;100.00;97464.72;5111563;28;20036;-76
2021/12/03 08:28:32;;;;;;;64.15;28.55;;;;;;;2.41;100.00;97471.22;5111951;28;20024;-76
2021/12/03 08:30:58;;;;;;;65.68;27.50;;;;;;;2.32;100.00;97470.84;5080503;28;20384;-77
2021/12/03 08:33:23;;;;;;;77.30;30.70;;;;;;;2.25;100.00;97472.94;5090450;28;20122;-77
2021/12/03 08:35:48;;;;;;;69.55;30.77;;;;;;;2.32;100.00;97478.16;5084770;28;20474;-76
2021/12/03 08:38:14;;;;;;;80.78;33.28;;;;;;;2.37;100.00;97494.38;5087447;28;20460;-75
2021/12/03 08:40:39;;;;;;;72.70;31.73;;;;;;;2.41;100.00;97496.28;5107332;28;20393;-75
2021/12/03 08:43:05;;;;;;;80.97;33.55;;;;;;;2.49;100.00;97500.44;5089182;28;20107;-76
2021/12/03 08:45:31;;;;;;;79.55;32.80;;;;;;;2.53;100.00;97504.25;5089661;28;20080;-76
2021/12/03 08:48:01;;;;;;;81.85;31.20;;;;;;;2.35;100.00;97501.91;5089393;28;20044;-75
2021/12/03 08:50:33;;;;;;;100.15;35.72;;;;;;;2.17;100.00;97511.97;5089461;28;20024;-74
2021/12/03 08:55:45;;;;;;;83.50;31.30;;;;;;;2.39;100.00;97513.81;5089269;28;20039;-75
2021/12/03 08:58:13;;;;;;;75.82;29.98;;;;;;;2.40;100.00;97523.56;5089954;28;20055;-75
2021/12/03 09:00:38;;;;;;;63.53;29.23;;;;;;;2.33;100.00;97514.81;5090518;28;20028;-74
2021/12/03 09:03:06;;;;;;;67.90;29.20;;;;;;;2.42;100.00;97533.00;5089913;28;20016;-74
2021/12/03 09:05:34;;;;;;;63.85;30.10;;;;;;;2.50;100.00;97537.16;5089921;28;20688;-75
2021/12/03 09:08:00;;;;;;;59.45;27.10;;;;;;;2.50;100.00;97537.97;5089937;28;20112;-76
2021/12/03 09:10:25;;;;;;;58.05;27.55;;;;;;;2.43;100.00;97547.31;5089254;28;20016;-74
2021/12/03 09:12:52;;;;;;;64.72;26.83;;;;;;;2.34;100.00;97548.84;5089347;28;20038;-75
2021/12/03 09:15:24;;;;;;;55.45;26.10;;;;;;;2.44;100.00;97552.47;5090381;28;20080;-75
2021/12/03 09:23:31;;;;;;;65.20;27.92;;;;;;;2.68;100.00;97566.50;5035316;28;20024;-75
2021/12/03 09:26:05;;;;;;;59.00;26.30;;;;;;;2.88;100.00;97560.47;5049405;28;20615;-75
2021/12/03 09:28:33;;;;;;;50.50;24.53;;;;;;;2.91;100.00;97565.38;5072962;28;20035;-76
2021/12/03 09:30:59;;;;;;;60.85;26.40;;;;;;;2.82;100.00;97573.09;5100578;28;20082;-76
2021/12/03 09:33:27;;;;;;;59.90;27.35;;;;;;;2.75;100.00;97569.81;5093956;28;20126;-76
2021/12/03 09:36:01;;;;;;;75.47;28.50;;;;;;;2.81;100.00;97570.66;5093962;28;20073;-75
2021/12/03 09:38:30;;;;;;;65.35;27.63;;;;;;;3.03;100.00;97582.22;5091126;28;20028;-74
2021/12/03 09:41:00;;;;;;;65.00;26.35;;;;;;;3.06;100.00;97582.53;5094117;28;20024;-75
2021/12/03 09:43:25;;;;;;;66.15;29.88;;;;;;;3.00;100.00;97580.84;5092983;28;20085;-74
2021/12/03 09:46:05;;;;;;;78.35;30.13;;;;;;;2.95;100.00;97582.66;5093782;28;20469;-74
2021/12/03 09:48:51;;;;;;;66.65;29.60;;;;;;;3.31;100.00;97584.63;5091148;28;20023;-75
2021/12/03 09:51:18;;;;;;;63.53;29.33;;;;;;;3.44;100.00;97588.78;5101170;28;20388;-75
2021/12/03 09:56:29;;;;;;;71.95;30.65;;;;;;;3.50;100.00;97585.03;5113608;28;20080;-77
2021/12/03 10:01:31;;;;;;;74.93;31.98;;;;;;;3.31;100.00;97586.50;5114658;28;20027;-75
2021/12/03 10:44:07;;;;;;;52.65;25.92;;;;;;;3.90;100.00;97600.72;5072832;28;20069;-76
2021/12/03 10:49:42;;;;;;;53.10;28.08;;;;;;;3.71;100.00;97589.50;5073175;28;20040;-76
2021/12/03 10:52:29;;;;;;;57.75;28.13;;;;;;;3.39;100.00;97592.25;5072966;28;20024;-74
2021/12/03 11:15:36;;;;;;;96.38;48.80;;;;;;;3.98;100.00;97616.47;5078711;28;20089;-75
2021/12/03 11:21:29;;;;;;;51.83;26.85;;;;;;;4.18;100.00;97619.28;5049389;28;20036;-75
2021/12/03 14:15:43;;;;;;;36.42;18.90;;;;;;;3.90;100.00;97628.59;5099682;28;20066;-75
2021/12/03 14:35:19;;;;;;;33.65;17.38;;;;;;;3.66;100.00;97652.50;5098928;28;20080;-76
2021/12/03 14:45:16;;;;;;;29.35;15.25;;;;;;;3.65;100.00;97663.56;5054140;28;20047;-75
2021/12/03 14:55:38;;;;;;;33.88;15.63;;;;;;;3.65;100.00;97674.38;5099599;28;20050;-76
2021/12/03 14:58:15;;;;;;;25.63;14.63;;;;;;;3.55;100.00;97677.81;5100161;28;20032;-79
2021/12/03 15:06:04;;;;;;;26.98;14.63;;;;;;;3.28;100.00;97689.72;5098448;28;20135;-75
2021/12/03 15:19:29;;;;;;;31.20;17.13;;;;;;;3.09;100.00;97695.47;5097920;28;20019;-76
2021/12/03 15:24:41;;;;;;;34.10;19.00;;;;;;;2.94;100.00;97705.31;5099011;28;20060;-76
2021/12/03 15:27:32;;;;;;;33.10;17.15;;;;;;;2.90;100.00;97705.00;5098645;28;20598;-76
2021/12/03 15:35:53;;;;;;;30.08;16.45;;;;;;;3.00;100.00;97715.09;5098510;28;20047;-78
2021/12/03 16:10:36;;;;;;;116.97;57.03;;;;;;;2.16;100.00;97757.72;5098016;28;20036;-75
2021/12/03 16:24:02;;;;;;;79.70;40.03;;;;;;;1.98;100.00;97761.44;5096272;28;20027;-75
2021/12/03 16:53:30;;;;;;;70.20;33.55;;;;;;;1.63;100.00;97787.00;5102819;28;21060;-77
2021/12/03 16:56:09;;;;;;;70.95;31.88;;;;;;;1.55;100.00;97782.81;5100770;28;20085;-78
2021/12/03 16:58:36;;;;;;;194.40;35.72;;;;;;;1.48;100.00;97777.56;5097652;28;20071;-75
2021/12/03 17:01:53;;;;;;;318.75;34.17;;;;;;;1.38;100.00;97795.44;5097439;28;20460;-75
2021/12/03 17:09:13;;;;;;;192.13;34.78;;;;;;;1.08;100.00;97801.03;5096472;28;20074;-75
2021/12/03 17:30:55;;;;;;;369.00;51.03;;;;;;;0.93;100.00;97801.56;5096104;28;20103;-75
2021/12/03 18:00:35;;;;;;;265.38;46.00;;;;;;;0.82;100.00;97815.84;5098338;28;20066;-74
2021/12/03 18:03:11;;;;;;;180.80;44.78;;;;;;;0.84;100.00;97824.53;5100847;28;20433;-76
2021/12/03 18:08:20;;;;;;;196.20;43.17;;;;;;;0.91;100.00;97830.56;5100911;28;20115;-75
2021/12/03 18:13:56;;;;;;;152.07;39.35;;;;;;;0.92;100.00;97834.91;5100476;28;20028;-75
2021/12/03 18:56:48;;;;;;;174.85;42.40;;;;;;;0.08;100.00;97845.31;5097358;28;20036;-75
2021/12/03 18:59:16;;;;;;;205.90;45.83;;;;;;;-0.09;100.00;97842.47;5096752;28;20056;-74
2021/12/03 19:01:42;;;;;;;229.90;50.20;;;;;;;-0.13;100.00;97822.50;5094839;28;20032;-75
2021/12/03 19:07:02;;;;;;;169.07;43.38;;;;;;;-0.16;100.00;97844.47;5097242;28;20028;-75
2021/12/03 19:09:32;;;;;;;243.93;51.13;;;;;;;-0.19;100.00;97851.09;5097782;28;20501;-75
2021/12/03 19:12:09;;;;;;;349.60;59.75;;;;;;;-0.09;100.00;97862.09;5096465;28;20032;-75
2021/12/03 19:14:38;;;;;;;142.68;45.05;;;;;;;-0.04;100.00;97875.69;5098319;28;20034;-74
2021/12/03 19:17:06;;;;;;;189.98;47.97;;;;;;;0.12;100.00;97882.28;5097648;28;20504;-76